sensor_id;sensor_type;location;lat;lon;timestamp;pressure;altitude;pressure_sealevel;temperature
20092;BMP180;10205;49.678;6.560;2023-06-22T00:01:18;100117.00;;;31.00
20092;BMP180;10205;49.678;6.560;2023-06-22T00:03:45;100109.00;;;30.90
20092;BMP180;10205;49.678;6.560;2023-06-22T00:06:13;100096.00;;;30.90
20092;BMP180;10205;49.678;6.560;2023-06-22T00:08:40;100110.00;;;30.80
20092;BMP180;10205;49.678;6.560;2023-06-22T00:11:08;100094.00;;;30.80
20092;BMP180;10205;49.678;6.560;2023-06-22T00:13:37;100095.00;;;30.70
20092;BMP180;10205;49.678;6.560;2023-06-22T00:16:05;100085.00;;;30.70
20092;BMP180;10205;49.678;6.560;2023-06-22T00:18:32;100078.00;;;30.60
20092;BMP180;10205;49.678;6.560;2023-06-22T00:21:00;100054.00;;;30.60
20092;BMP180;10205;49.678;6.560;2023-06-22T00:23:27;100032.00;;;30.50
20092;BMP180;10205;49.678;6.560;2023-06-22T00:25:59;100026.00;;;30.50
20092;BMP180;10205;49.678;6.560;2023-06-22T00:28:27;100018.00;;;30.40
20092;BMP180;10205;49.678;6.560;2023-06-22T00:30:56;100006.00;;;30.40
20092;BMP180;10205;49.678;6.560;2023-06-22T00:33:23;99999.00;;;30.40
20092;BMP180;10205;49.678;6.560;2023-06-22T00:35:50;99987.00;;;30.30
20092;BMP180;10205;49.678;6.560;2023-06-22T00:38:18;99991.00;;;30.30
20092;BMP180;10205;49.678;6.560;2023-06-22T00:40:45;99996.00;;;30.20
20092;BMP180;10205;49.678;6.560;2023-06-22T00:43:13;100017.00;;;30.20
20092;BMP180;10205;49.678;6.560;2023-06-22T00:45:40;100021.00;;;30.10
20092;BMP180;10205;49.678;6.560;2023-06-22T00:48:12;100039.00;;;30.10
20092;BMP180;10205;49.678;6.560;2023-06-22T00:50:40;100058.00;;;30.00
20092;BMP180;10205;49.678;6.560;2023-06-22T00:53:09;100075.00;;;30.00
20092;BMP180;10205;49.678;6.560;2023-06-22T00:55:41;100084.00;;;29.90
20092;BMP180;10205;49.678;6.560;2023-06-22T00:58:09;100090.00;;;29.90
20092;BMP180;10205;49.678;6.560;2023-06-22T01:00:40;100101.00;;;29.80
20092;BMP180;10205;49.678;6.560;2023-06-22T01:03:08;100110.00;;;29.80
20092;BMP180;10205;49.678;6.560;2023-06-22T01:05:37;100108.00;;;29.70
20092;BMP180;10205;49.678;6.560;2023-06-22T01:08:20;100102.00;;;29.70
20092;BMP180;10205;49.678;6.560;2023-06-22T01:10:55;100099.00;;;29.60
20092;BMP180;10205;49.678;6.560;2023-06-22T01:13:32;100089.00;;;29.60
20092;BMP180;10205;49.678;6.560;2023-06-22T01:16:07;100047.00;;;29.60
20092;BMP180;10205;49.678;6.560;2023-06-22T01:18:40;99961.00;;;29.50
20092;BMP180;10205;49.678;6.560;2023-06-22T01:21:16;99913.00;;;29.50
20092;BMP180;10205;49.678;6.560;2023-06-22T01:24:01;99935.00;;;29.40
20092;BMP180;10205;49.678;6.560;2023-06-22T01:26:38;99954.00;;;29.40
20092;BMP180;10205;49.678;6.560;2023-06-22T01:29:10;99974.00;;;29.30
20092;BMP180;10205;49.678;6.560;2023-06-22T01:31:40;99978.00;;;29.30
20092;BMP180;10205;49.678;6.560;2023-06-22T01:34:09;99983.00;;;29.30
20092;BMP180;10205;49.678;6.560;2023-06-22T01:36:39;99982.00;;;29.20
20092;BMP180;10205;49.678;6.560;2023-06-22T01:39:08;99983.00;;;29.20
20092;BMP180;10205;49.678;6.560;2023-06-22T01:41:38;99980.00;;;29.10
20092;BMP180;10205;49.678;6.560;2023-06-22T01:44:08;99991.00;;;29.10
20092;BMP180;10205;49.678;6.560;2023-06-22T01:46:37;99981.00;;;29.10
20092;BMP180;10205;49.678;6.560;2023-06-22T01:49:06;99983.00;;;29.00
20092;BMP180;10205;49.678;6.560;2023-06-22T01:51:34;99978.00;;;29.00
20092;BMP180;10205;49.678;6.560;2023-06-22T01:54:02;99984.00;;;29.00
20092;BMP180;10205;49.678;6.560;2023-06-22T01:56:29;99988.00;;;28.90
20092;BMP180;10205;49.678;6.560;2023-06-22T01:59:04;99978.00;;;28.90
20092;BMP180;10205;49.678;6.560;2023-06-22T02:01:43;99967.00;;;28.80
20092;BMP180;10205;49.678;6.560;2023-06-22T02:04:19;99978.00;;;28.80
20092;BMP180;10205;49.678;6.560;2023-06-22T02:06:51;99973.00;;;28.80
20092;BMP180;10205;49.678;6.560;2023-06-22T02:09:21;99970.00;;;28.70
20092;BMP180;10205;49.678;6.560;2023-06-22T02:11:52;99964.00;;;28.70
20092;BMP180;10205;49.678;6.560;2023-06-22T02:14:22;99965.00;;;28.70
20092;BMP180;10205;49.678;6.560;2023-06-22T02:16:51;99956.00;;;28.60
20092;BMP180;10205;49.678;6.560;2023-06-22T02:19:23;99951.00;;;28.60
20092;BMP180;10205;49.678;6.560;2023-06-22T02:21:51;99951.00;;;28.60
20092;BMP180;10205;49.678;6.560;2023-06-22T02:24:18;99945.00;;;28.50
20092;BMP180;10205;49.678;6.560;2023-06-22T02:26:49;99949.00;;;28.50
20092;BMP180;10205;49.678;6.560;2023-06-22T02:29:17;99941.00;;;28.50
20092;BMP180;10205;49.678;6.560;2023-06-22T02:31:44;99932.00;;;28.40
20092;BMP180;10205;49.678;6.560;2023-06-22T02:34:13;99928.00;;;28.40
20092;BMP180;10205;49.678;6.560;2023-06-22T02:36:44;99918.00;;;28.40
20092;BMP180;10205;49.678;6.560;2023-06-22T02:39:19;99913.00;;;28.30
20092;BMP180;10205;49.678;6.560;2023-06-22T02:41:48;99910.00;;;28.30
20092;BMP180;10205;49.678;6.560;2023-06-22T02:44:15;99917.00;;;28.30
20092;BMP180;10205;49.678;6.560;2023-06-22T02:46:42;99919.00;;;28.30
20092;BMP180;10205;49.678;6.560;2023-06-22T02:49:11;99917.00;;;28.20
20092;BMP180;10205;49.678;6.560;2023-06-22T02:51:41;99917.00;;;28.20
20092;BMP180;10205;49.678;6.560;2023-06-22T02:54:08;99912.00;;;28.20
20092;BMP180;10205;49.678;6.560;2023-06-22T02:56:35;99912.00;;;28.20
20092;BMP180;10205;49.678;6.560;2023-06-22T02:59:03;99901.00;;;28.10
20092;BMP180;10205;49.678;6.560;2023-06-22T03:01:30;99909.00;;;28.10
20092;BMP180;10205;49.678;6.560;2023-06-22T03:04:04;99900.00;;;28.10
20092;BMP180;10205;49.678;6.560;2023-06-22T03:06:32;99901.00;;;28.00
20092;BMP180;10205;49.678;6.560;2023-06-22T03:09:03;99901.00;;;28.00
20092;BMP180;10205;49.678;6.560;2023-06-22T03:11:31;99901.00;;;28.00
20092;BMP180;10205;49.678;6.560;2023-06-22T03:13:59;99893.00;;;27.90
20092;BMP180;10205;49.678;6.560;2023-06-22T03:16:26;99890.00;;;27.90
20092;BMP180;10205;49.678;6.560;2023-06-22T03:18:54;99892.00;;;27.90
20092;BMP180;10205;49.678;6.560;2023-06-22T03:21:23;99895.00;;;27.90
20092;BMP180;10205;49.678;6.560;2023-06-22T03:23:51;99896.00;;;27.80
20092;BMP180;10205;49.678;6.560;2023-06-22T03:26:19;99904.00;;;27.80
20092;BMP180;10205;49.678;6.560;2023-06-22T03:28:47;99891.00;;;27.80
20092;BMP180;10205;49.678;6.560;2023-06-22T03:31:14;99872.00;;;27.80
20092;BMP180;10205;49.678;6.560;2023-06-22T03:33:41;99875.00;;;27.70
20092;BMP180;10205;49.678;6.560;2023-06-22T03:36:08;99882.00;;;27.70
20092;BMP180;10205;49.678;6.560;2023-06-22T03:38:36;99882.00;;;27.70
20092;BMP180;10205;49.678;6.560;2023-06-22T03:41:04;99880.00;;;27.60
20092;BMP180;10205;49.678;6.560;2023-06-22T03:43:31;99882.00;;;27.60
20092;BMP180;10205;49.678;6.560;2023-06-22T03:45:59;99873.00;;;27.60
20092;BMP180;10205;49.678;6.560;2023-06-22T03:48:26;99866.00;;;27.60
20092;BMP180;10205;49.678;6.560;2023-06-22T03:50:53;99869.00;;;27.50
20092;BMP180;10205;49.678;6.560;2023-06-22T03:53:21;99870.00;;;27.50
20092;BMP180;10205;49.678;6.560;2023-06-22T03:55:50;99869.00;;;27.50
20092;BMP180;10205;49.678;6.560;2023-06-22T03:58:22;99867.00;;;27.50
20092;BMP180;10205;49.678;6.560;2023-06-22T04:00:51;99871.00;;;27.40
20092;BMP180;10205;49.678;6.560;2023-06-22T04:03:19;99873.00;;;27.40
20092;BMP180;10205;49.678;6.560;2023-06-22T04:05:47;99881.00;;;27.40
20092;BMP180;10205;49.678;6.560;2023-06-22T04:08:15;99879.00;;;27.40
20092;BMP180;10205;49.678;6.560;2023-06-22T04:10:43;99880.00;;;27.30
20092;BMP180;10205;49.678;6.560;2023-06-22T04:13:11;99875.00;;;27.30
20092;BMP180;10205;49.678;6.560;2023-06-22T04:15:39;99873.00;;;27.30
20092;BMP180;10205;49.678;6.560;2023-06-22T04:18:07;99874.00;;;27.30
20092;BMP180;10205;49.678;6.560;2023-06-22T04:20:34;99874.00;;;27.30
20092;BMP180;10205;49.678;6.560;2023-06-22T04:23:01;99874.00;;;27.20
20092;BMP180;10205;49.678;6.560;2023-06-22T04:25:29;99873.00;;;27.20
20092;BMP180;10205;49.678;6.560;2023-06-22T04:27:56;99865.00;;;27.20
20092;BMP180;10205;49.678;6.560;2023-06-22T04:30:23;99876.00;;;27.20
20092;BMP180;10205;49.678;6.560;2023-06-22T04:32:55;99870.00;;;27.20
20092;BMP180;10205;49.678;6.560;2023-06-22T04:35:23;99873.00;;;27.10
20092;BMP180;10205;49.678;6.560;2023-06-22T04:37:52;99856.00;;;27.10
20092;BMP180;10205;49.678;6.560;2023-06-22T04:40:22;99848.00;;;27.10
20092;BMP180;10205;49.678;6.560;2023-06-22T04:42:49;99844.00;;;27.10
20092;BMP180;10205;49.678;6.560;2023-06-22T04:45:20;99850.00;;;27.00
20092;BMP180;10205;49.678;6.560;2023-06-22T04:47:48;99836.00;;;27.00
20092;BMP180;10205;49.678;6.560;2023-06-22T04:50:16;99834.00;;;27.00
20092;BMP180;10205;49.678;6.560;2023-06-22T04:52:46;99850.00;;;27.00
20092;BMP180;10205;49.678;6.560;2023-06-22T04:55:15;99836.00;;;27.00
20092;BMP180;10205;49.678;6.560;2023-06-22T04:57:45;99837.00;;;27.00
20092;BMP180;10205;49.678;6.560;2023-06-22T05:00:16;99838.00;;;26.90
20092;BMP180;10205;49.678;6.560;2023-06-22T05:02:46;99838.00;;;26.90
20092;BMP180;10205;49.678;6.560;2023-06-22T05:05:15;99839.00;;;26.90
20092;BMP180;10205;49.678;6.560;2023-06-22T05:07:44;99843.00;;;26.90
20092;BMP180;10205;49.678;6.560;2023-06-22T05:10:14;99846.00;;;26.90
20092;BMP180;10205;49.678;6.560;2023-06-22T05:12:42;99848.00;;;26.80
20092;BMP180;10205;49.678;6.560;2023-06-22T05:15:10;99854.00;;;26.80
20092;BMP180;10205;49.678;6.560;2023-06-22T05:17:38;99847.00;;;26.80
20092;BMP180;10205;49.678;6.560;2023-06-22T05:20:09;99855.00;;;26.80
20092;BMP180;10205;49.678;6.560;2023-06-22T05:22:38;99858.00;;;26.80
20092;BMP180;10205;49.678;6.560;2023-06-22T05:25:09;99864.00;;;26.80
20092;BMP180;10205;49.678;6.560;2023-06-22T05:27:37;99866.00;;;26.80
20092;BMP180;10205;49.678;6.560;2023-06-22T05:30:08;99863.00;;;26.80
20092;BMP180;10205;49.678;6.560;2023-06-22T05:32:36;99859.00;;;26.80
20092;BMP180;10205;49.678;6.560;2023-06-22T05:35:04;99862.00;;;26.80
20092;BMP180;10205;49.678;6.560;2023-06-22T05:37:32;99866.00;;;26.70
20092;BMP180;10205;49.678;6.560;2023-06-22T05:40:00;99863.00;;;26.70
20092;BMP180;10205;49.678;6.560;2023-06-22T05:42:29;99860.00;;;26.70
20092;BMP180;10205;49.678;6.560;2023-06-22T05:44:57;99861.00;;;26.70
20092;BMP180;10205;49.678;6.560;2023-06-22T05:47:24;99859.00;;;26.70
20092;BMP180;10205;49.678;6.560;2023-06-22T05:49:52;99852.00;;;26.70
20092;BMP180;10205;49.678;6.560;2023-06-22T05:52:19;99854.00;;;26.70
20092;BMP180;10205;49.678;6.560;2023-06-22T05:54:46;99858.00;;;26.70
20092;BMP180;10205;49.678;6.560;2023-06-22T05:57:15;99851.00;;;26.70
20092;BMP180;10205;49.678;6.560;2023-06-22T05:59:42;99840.00;;;26.70
20092;BMP180;10205;49.678;6.560;2023-06-22T06:02:09;99845.00;;;26.60
20092;BMP180;10205;49.678;6.560;2023-06-22T06:04:37;99852.00;;;26.60
20092;BMP180;10205;49.678;6.560;2023-06-22T06:07:04;99849.00;;;26.60
20092;BMP180;10205;49.678;6.560;2023-06-22T06:09:31;99845.00;;;26.60
20092;BMP180;10205;49.678;6.560;2023-06-22T06:11:59;99851.00;;;26.60
20092;BMP180;10205;49.678;6.560;2023-06-22T06:14:30;99843.00;;;26.60
20092;BMP180;10205;49.678;6.560;2023-06-22T06:16:57;99849.00;;;26.60
20092;BMP180;10205;49.678;6.560;2023-06-22T06:19:24;99853.00;;;26.60
20092;BMP180;10205;49.678;6.560;2023-06-22T06:21:51;99852.00;;;26.60
20092;BMP180;10205;49.678;6.560;2023-06-22T06:24:19;99848.00;;;26.60
20092;BMP180;10205;49.678;6.560;2023-06-22T06:26:46;99847.00;;;26.60
20092;BMP180;10205;49.678;6.560;2023-06-22T06:29:14;99844.00;;;26.60
20092;BMP180;10205;49.678;6.560;2023-06-22T06:31:43;99833.00;;;26.60
20092;BMP180;10205;49.678;6.560;2023-06-22T06:34:10;99834.00;;;26.60
20092;BMP180;10205;49.678;6.560;2023-06-22T06:36:38;99838.00;;;26.60
20092;BMP180;10205;49.678;6.560;2023-06-22T06:39:05;99846.00;;;26.60
20092;BMP180;10205;49.678;6.560;2023-06-22T06:41:32;99831.00;;;26.60
20092;BMP180;10205;49.678;6.560;2023-06-22T06:43:59;99830.00;;;26.60
20092;BMP180;10205;49.678;6.560;2023-06-22T06:46:27;99841.00;;;26.60
20092;BMP180;10205;49.678;6.560;2023-06-22T06:48:55;99825.00;;;26.60
20092;BMP180;10205;49.678;6.560;2023-06-22T06:51:23;99822.00;;;26.60
20092;BMP180;10205;49.678;6.560;2023-06-22T06:53:50;99821.00;;;26.60
20092;BMP180;10205;49.678;6.560;2023-06-22T06:56:18;99817.00;;;26.60
20092;BMP180;10205;49.678;6.560;2023-06-22T06:58:45;99813.00;;;26.60
20092;BMP180;10205;49.678;6.560;2023-06-22T07:01:13;99805.00;;;26.60
20092;BMP180;10205;49.678;6.560;2023-06-22T07:03:40;99799.00;;;26.60
20092;BMP180;10205;49.678;6.560;2023-06-22T07:06:10;99796.00;;;26.70
20092;BMP180;10205;49.678;6.560;2023-06-22T07:08:37;99794.00;;;26.70
20092;BMP180;10205;49.678;6.560;2023-06-22T07:11:05;99782.00;;;26.70
20092;BMP180;10205;49.678;6.560;2023-06-22T07:13:33;99767.00;;;26.70
20092;BMP180;10205;49.678;6.560;2023-06-22T07:16:00;99762.00;;;26.70
20092;BMP180;10205;49.678;6.560;2023-06-22T07:18:27;99764.00;;;26.80
20092;BMP180;10205;49.678;6.560;2023-06-22T07:20:54;99766.00;;;26.80
20092;BMP180;10205;49.678;6.560;2023-06-22T07:23:23;99765.00;;;26.80
20092;BMP180;10205;49.678;6.560;2023-06-22T07:25:50;99750.00;;;26.80
20092;BMP180;10205;49.678;6.560;2023-06-22T07:28:18;99742.00;;;26.90
20092;BMP180;10205;49.678;6.560;2023-06-22T07:30:46;99744.00;;;26.90
20092;BMP180;10205;49.678;6.560;2023-06-22T07:33:13;99728.00;;;26.90
20092;BMP180;10205;49.678;6.560;2023-06-22T07:35:40;99717.00;;;27.00
20092;BMP180;10205;49.678;6.560;2023-06-22T07:38:07;99718.00;;;27.00
20092;BMP180;10205;49.678;6.560;2023-06-22T07:40:36;99727.00;;;27.10
20092;BMP180;10205;49.678;6.560;2023-06-22T07:43:04;99744.00;;;27.10
20092;BMP180;10205;49.678;6.560;2023-06-22T07:45:31;99744.00;;;27.20
20092;BMP180;10205;49.678;6.560;2023-06-22T07:48:00;99719.00;;;27.20
20092;BMP180;10205;49.678;6.560;2023-06-22T07:50:28;99692.00;;;27.30
20092;BMP180;10205;49.678;6.560;2023-06-22T07:52:55;99680.00;;;27.30
20092;BMP180;10205;49.678;6.560;2023-06-22T07:55:22;99669.00;;;27.40
20092;BMP180;10205;49.678;6.560;2023-06-22T07:57:51;99672.00;;;27.40
20092;BMP180;10205;49.678;6.560;2023-06-22T08:00:19;99669.00;;;27.50
20092;BMP180;10205;49.678;6.560;2023-06-22T08:02:46;99655.00;;;27.60
20092;BMP180;10205;49.678;6.560;2023-06-22T08:05:15;99644.00;;;27.60
20092;BMP180;10205;49.678;6.560;2023-06-22T08:07:43;99627.00;;;27.70
20092;BMP180;10205;49.678;6.560;2023-06-22T08:10:12;99626.00;;;27.70
20092;BMP180;10205;49.678;6.560;2023-06-22T08:12:39;99630.00;;;27.80
20092;BMP180;10205;49.678;6.560;2023-06-22T08:15:09;99618.00;;;27.80
20092;BMP180;10205;49.678;6.560;2023-06-22T08:17:36;99607.00;;;27.90
20092;BMP180;10205;49.678;6.560;2023-06-22T08:20:05;99595.00;;;28.00
20092;BMP180;10205;49.678;6.560;2023-06-22T08:22:35;99589.00;;;28.00
20092;BMP180;10205;49.678;6.560;2023-06-22T08:25:04;99587.00;;;28.10
20092;BMP180;10205;49.678;6.560;2023-06-22T08:27:32;99620.00;;;28.10
20092;BMP180;10205;49.678;6.560;2023-06-22T08:29:59;99622.00;;;28.20
20092;BMP180;10205;49.678;6.560;2023-06-22T08:32:28;99631.00;;;28.20
20092;BMP180;10205;49.678;6.560;2023-06-22T08:34:56;99619.00;;;28.20
20092;BMP180;10205;49.678;6.560;2023-06-22T08:37:24;99627.00;;;28.30
20092;BMP180;10205;49.678;6.560;2023-06-22T08:39:56;99623.00;;;28.30
20092;BMP180;10205;49.678;6.560;2023-06-22T08:42:23;99620.00;;;28.40
20092;BMP180;10205;49.678;6.560;2023-06-22T08:44:51;99599.00;;;28.40
20092;BMP180;10205;49.678;6.560;2023-06-22T08:47:19;99587.00;;;28.50
20092;BMP180;10205;49.678;6.560;2023-06-22T08:49:49;99568.00;;;28.50
20092;BMP180;10205;49.678;6.560;2023-06-22T08:52:17;99564.00;;;28.50
20092;BMP180;10205;49.678;6.560;2023-06-22T08:54:44;99600.00;;;28.60
20092;BMP180;10205;49.678;6.560;2023-06-22T08:57:11;99687.00;;;28.60
20092;BMP180;10205;49.678;6.560;2023-06-22T08:59:39;99798.00;;;28.60
20092;BMP180;10205;49.678;6.560;2023-06-22T09:02:06;99857.00;;;28.60
20092;BMP180;10205;49.678;6.560;2023-06-22T09:04:33;99871.00;;;28.60
20092;BMP180;10205;49.678;6.560;2023-06-22T09:07:05;99839.00;;;28.70
20092;BMP180;10205;49.678;6.560;2023-06-22T09:09:32;99748.00;;;28.70
20092;BMP180;10205;49.678;6.560;2023-06-22T09:12:00;99743.00;;;28.70
20092;BMP180;10205;49.678;6.560;2023-06-22T09:14:27;99751.00;;;28.70
20092;BMP180;10205;49.678;6.560;2023-06-22T09:16:54;99766.00;;;28.70
20092;BMP180;10205;49.678;6.560;2023-06-22T09:19:22;99755.00;;;28.70
20092;BMP180;10205;49.678;6.560;2023-06-22T09:21:50;99725.00;;;28.80
20092;BMP180;10205;49.678;6.560;2023-06-22T09:24:19;99730.00;;;28.80
20092;BMP180;10205;49.678;6.560;2023-06-22T09:26:49;99739.00;;;28.80
20092;BMP180;10205;49.678;6.560;2023-06-22T09:29:16;99747.00;;;28.80
20092;BMP180;10205;49.678;6.560;2023-06-22T09:31:44;99750.00;;;28.80
20092;BMP180;10205;49.678;6.560;2023-06-22T09:34:14;99755.00;;;28.80
20092;BMP180;10205;49.678;6.560;2023-06-22T09:36:41;99752.00;;;28.90
20092;BMP180;10205;49.678;6.560;2023-06-22T09:39:09;99746.00;;;28.90
20092;BMP180;10205;49.678;6.560;2023-06-22T09:41:37;99738.00;;;28.90
20092;BMP180;10205;49.678;6.560;2023-06-22T09:44:06;99746.00;;;28.90
20092;BMP180;10205;49.678;6.560;2023-06-22T09:46:37;99748.00;;;28.90
20092;BMP180;10205;49.678;6.560;2023-06-22T09:49:04;99756.00;;;28.90
20092;BMP180;10205;49.678;6.560;2023-06-22T09:51:31;99748.00;;;28.90
20092;BMP180;10205;49.678;6.560;2023-06-22T09:53:58;99739.00;;;28.90
20092;BMP180;10205;49.678;6.560;2023-06-22T09:56:25;99724.00;;;28.90
20092;BMP180;10205;49.678;6.560;2023-06-22T09:58:55;99712.00;;;29.00
20092;BMP180;10205;49.678;6.560;2023-06-22T10:01:22;99698.00;;;29.00
20092;BMP180;10205;49.678;6.560;2023-06-22T10:03:52;99687.00;;;29.00
20092;BMP180;10205;49.678;6.560;2023-06-22T10:06:21;99686.00;;;29.00
20092;BMP180;10205;49.678;6.560;2023-06-22T10:08:50;99675.00;;;29.00
20092;BMP180;10205;49.678;6.560;2023-06-22T10:11:18;99669.00;;;29.00
20092;BMP180;10205;49.678;6.560;2023-06-22T10:13:45;99666.00;;;29.00
20092;BMP180;10205;49.678;6.560;2023-06-22T10:16:14;99668.00;;;29.00
20092;BMP180;10205;49.678;6.560;2023-06-22T10:18:41;99663.00;;;29.00
20092;BMP180;10205;49.678;6.560;2023-06-22T10:21:08;99656.00;;;29.00
20092;BMP180;10205;49.678;6.560;2023-06-22T10:23:35;99651.00;;;29.00
20092;BMP180;10205;49.678;6.560;2023-06-22T10:26:02;99659.00;;;29.00
20092;BMP180;10205;49.678;6.560;2023-06-22T10:28:29;99646.00;;;29.00
20092;BMP180;10205;49.678;6.560;2023-06-22T10:30:57;99642.00;;;29.10
20092;BMP180;10205;49.678;6.560;2023-06-22T10:33:25;99632.00;;;29.10
20092;BMP180;10205;49.678;6.560;2023-06-22T10:35:55;99651.00;;;29.10
20092;BMP180;10205;49.678;6.560;2023-06-22T10:38:22;99646.00;;;29.10
20092;BMP180;10205;49.678;6.560;2023-06-22T10:40:49;99642.00;;;29.10
20092;BMP180;10205;49.678;6.560;2023-06-22T10:43:16;99638.00;;;29.10
20092;BMP180;10205;49.678;6.560;2023-06-22T10:45:44;99638.00;;;29.20
20092;BMP180;10205;49.678;6.560;2023-06-22T10:48:12;99634.00;;;29.20
20092;BMP180;10205;49.678;6.560;2023-06-22T10:50:40;99629.00;;;29.20
20092;BMP180;10205;49.678;6.560;2023-06-22T10:53:07;99624.00;;;29.20
20092;BMP180;10205;49.678;6.560;2023-06-22T10:55:35;99616.00;;;29.20
20092;BMP180;10205;49.678;6.560;2023-06-22T10:58:02;99611.00;;;29.30
20092;BMP180;10205;49.678;6.560;2023-06-22T11:00:29;99593.00;;;29.30
20092;BMP180;10205;49.678;6.560;2023-06-22T11:02:56;99596.00;;;29.30
20092;BMP180;10205;49.678;6.560;2023-06-22T11:05:24;99596.00;;;29.30
20092;BMP180;10205;49.678;6.560;2023-06-22T11:07:52;99598.00;;;29.40
20092;BMP180;10205;49.678;6.560;2023-06-22T11:10:20;99593.00;;;29.40
20092;BMP180;10205;49.678;6.560;2023-06-22T11:12:47;99592.00;;;29.40
20092;BMP180;10205;49.678;6.560;2023-06-22T11:15:14;99587.00;;;29.40
20092;BMP180;10205;49.678;6.560;2023-06-22T11:17:41;99583.00;;;29.40
20092;BMP180;10205;49.678;6.560;2023-06-22T11:20:09;99570.00;;;29.50
20092;BMP180;10205;49.678;6.560;2023-06-22T11:22:38;99571.00;;;29.50
20092;BMP180;10205;49.678;6.560;2023-06-22T11:25:08;99574.00;;;29.50
20092;BMP180;10205;49.678;6.560;2023-06-22T11:27:36;99562.00;;;29.60
20092;BMP180;10205;49.678;6.560;2023-06-22T11:30:05;99557.00;;;29.60
20092;BMP180;10205;49.678;6.560;2023-06-22T11:32:33;99552.00;;;29.60
20092;BMP180;10205;49.678;6.560;2023-06-22T11:35:01;99551.00;;;29.70
20092;BMP180;10205;49.678;6.560;2023-06-22T11:37:28;99548.00;;;29.70
20092;BMP180;10205;49.678;6.560;2023-06-22T11:39:55;99532.00;;;29.70
20092;BMP180;10205;49.678;6.560;2023-06-22T11:42:24;99528.00;;;29.80
20092;BMP180;10205;49.678;6.560;2023-06-22T11:44:51;99516.00;;;29.80
20092;BMP180;10205;49.678;6.560;2023-06-22T11:47:18;99509.00;;;29.90
20092;BMP180;10205;49.678;6.560;2023-06-22T11:49:46;99509.00;;;29.90
20092;BMP180;10205;49.678;6.560;2023-06-22T11:52:13;99487.00;;;30.00
20092;BMP180;10205;49.678;6.560;2023-06-22T11:54:40;99482.00;;;30.00
20092;BMP180;10205;49.678;6.560;2023-06-22T11:57:08;99486.00;;;30.10
20092;BMP180;10205;49.678;6.560;2023-06-22T11:59:36;99478.00;;;30.10
20092;BMP180;10205;49.678;6.560;2023-06-22T12:02:04;99476.00;;;30.20
20092;BMP180;10205;49.678;6.560;2023-06-22T12:04:35;99476.00;;;30.30
20092;BMP180;10205;49.678;6.560;2023-06-22T12:07:02;99476.00;;;30.40
20092;BMP180;10205;49.678;6.560;2023-06-22T12:09:30;99482.00;;;30.40
20092;BMP180;10205;49.678;6.560;2023-06-22T12:11:57;99477.00;;;30.50
20092;BMP180;10205;49.678;6.560;2023-06-22T12:14:24;99474.00;;;30.60
20092;BMP180;10205;49.678;6.560;2023-06-22T12:16:53;99479.00;;;30.70
20092;BMP180;10205;49.678;6.560;2023-06-22T12:19:20;99480.00;;;30.70
20092;BMP180;10205;49.678;6.560;2023-06-22T12:21:50;99465.00;;;30.80
20092;BMP180;10205;49.678;6.560;2023-06-22T12:24:17;99462.00;;;30.90
20092;BMP180;10205;49.678;6.560;2023-06-22T12:26:45;99449.00;;;31.00
20092;BMP180;10205;49.678;6.560;2023-06-22T12:29:12;99444.00;;;31.10
20092;BMP180;10205;49.678;6.560;2023-06-22T12:31:39;99439.00;;;31.10
20092;BMP180;10205;49.678;6.560;2023-06-22T12:34:08;99439.00;;;31.20
20092;BMP180;10205;49.678;6.560;2023-06-22T12:36:36;99433.00;;;31.30
20092;BMP180;10205;49.678;6.560;2023-06-22T12:39:03;99421.00;;;31.40
20092;BMP180;10205;49.678;6.560;2023-06-22T12:41:30;99425.00;;;31.40
20092;BMP180;10205;49.678;6.560;2023-06-22T12:43:57;99414.00;;;31.50
20092;BMP180;10205;49.678;6.560;2023-06-22T12:46:26;99418.00;;;31.60
20092;BMP180;10205;49.678;6.560;2023-06-22T12:48:53;99416.00;;;31.60
20092;BMP180;10205;49.678;6.560;2023-06-22T12:51:23;99415.00;;;31.70
20092;BMP180;10205;49.678;6.560;2023-06-22T12:53:50;99414.00;;;31.80
20092;BMP180;10205;49.678;6.560;2023-06-22T12:56:18;99417.00;;;31.80
20092;BMP180;10205;49.678;6.560;2023-06-22T12:58:45;99392.00;;;31.80
20092;BMP180;10205;49.678;6.560;2023-06-22T13:01:12;99398.00;;;31.90
20092;BMP180;10205;49.678;6.560;2023-06-22T13:03:41;99425.00;;;32.00
20092;BMP180;10205;49.678;6.560;2023-06-22T13:06:08;99424.00;;;32.00
20092;BMP180;10205;49.678;6.560;2023-06-22T13:08:37;99393.00;;;32.00
20092;BMP180;10205;49.678;6.560;2023-06-22T13:11:07;99400.00;;;32.00
20092;BMP180;10205;49.678;6.560;2023-06-22T13:13:34;99401.00;;;32.10
20092;BMP180;10205;49.678;6.560;2023-06-22T13:16:01;99419.00;;;32.10
20092;BMP180;10205;49.678;6.560;2023-06-22T13:18:28;99543.00;;;32.10
20092;BMP180;10205;49.678;6.560;2023-06-22T13:20:56;99648.00;;;32.10
20092;BMP180;10205;49.678;6.560;2023-06-22T13:23:24;99526.00;;;32.10
20092;BMP180;10205;49.678;6.560;2023-06-22T13:25:52;99458.00;;;32.00
20092;BMP180;10205;49.678;6.560;2023-06-22T13:28:20;99440.00;;;32.00
20092;BMP180;10205;49.678;6.560;2023-06-22T13:30:47;99444.00;;;32.00
20092;BMP180;10205;49.678;6.560;2023-06-22T13:33:15;99454.00;;;31.90
20092;BMP180;10205;49.678;6.560;2023-06-22T13:35:42;99460.00;;;31.90
20092;BMP180;10205;49.678;6.560;2023-06-22T13:38:10;99447.00;;;31.90
20092;BMP180;10205;49.678;6.560;2023-06-22T13:40:37;99443.00;;;31.80
20092;BMP180;10205;49.678;6.560;2023-06-22T13:43:06;99434.00;;;31.80
20092;BMP180;10205;49.678;6.560;2023-06-22T13:45:34;99437.00;;;31.70
20092;BMP180;10205;49.678;6.560;2023-06-22T13:48:01;99435.00;;;31.70
20092;BMP180;10205;49.678;6.560;2023-06-22T13:50:28;99435.00;;;31.60
20092;BMP180;10205;49.678;6.560;2023-06-22T13:52:56;99444.00;;;31.60
20092;BMP180;10205;49.678;6.560;2023-06-22T13:55:23;99448.00;;;31.60
20092;BMP180;10205;49.678;6.560;2023-06-22T13:57:52;99451.00;;;31.50
20092;BMP180;10205;49.678;6.560;2023-06-22T14:00:21;99460.00;;;31.50
20092;BMP180;10205;49.678;6.560;2023-06-22T14:02:49;99477.00;;;31.50
20092;BMP180;10205;49.678;6.560;2023-06-22T14:05:16;99477.00;;;31.40
20092;BMP180;10205;49.678;6.560;2023-06-22T14:07:43;99469.00;;;31.40
20092;BMP180;10205;49.678;6.560;2023-06-22T14:10:11;99473.00;;;31.30
20092;BMP180;10205;49.678;6.560;2023-06-22T14:12:38;99468.00;;;31.30
20092;BMP180;10205;49.678;6.560;2023-06-22T14:15:06;99468.00;;;31.20